Time;durP1;ratioP1;P1;durP2;ratioP2;P2;SDS_P1;SDS_P2;PMS_P1;PMS_P2;Temp;Humidity;BMP_temperature;BMP_pressure;BME280_temperature;BME280_humidity;BME280_pressure;Samples;Min_cycle;Max_cycle;Signal;HPM_P1;HPM_P2
2023/09/28 00:01:12;;;;;;;15.60;9.25;;;;;;;;;;4992385;28;20060;-64
2023/09/28 00:03:41;;;;;;;11.80;8.70;;;;;;;;;;4992465;28;20065;-64
2023/09/28 00:06:07;;;;;;;10.70;8.23;;;;;;;;;;4995757;28;20310;-64
2023/09/28 00:08:34;;;;;;;13.07;8.23;;;;;;;;;;4990487;28;20093;-64
2023/09/28 00:11:01;;;;;;;13.73;8.23;;;;;;;;;;4986509;28;20053;-64
2023/09/28 00:13:28;;;;;;;12.48;7.93;;;;;;;;;;4991572;28;20463;-64
2023/09/28 00:15:54;;;;;;;15.00;8.30;;;;;;;;;;4991158;28;20050;-64
2023/09/28 00:18:23;;;;;;;11.02;7.65;;;;;;;;;;4987127;28;20057;-64
2023/09/28 00:20:51;;;;;;;10.88;8.00;;;;;;;;;;4991230;28;20051;-64
2023/09/28 00:23:18;;;;;;;11.48;7.63;;;;;;;;;;4987885;28;20129;-64
2023/09/28 00:25:45;;;;;;;12.32;7.55;;;;;;;;;;4988055;28;20085;-64
2023/09/28 00:28:12;;;;;;;12.85;7.60;;;;;;;;;;4988592;28;20054;-64
2023/09/28 00:30:38;;;;;;;11.10;7.20;;;;;;;;;;4992170;28;20054;-64
2023/09/28 00:33:06;;;;;;;10.20;7.20;;;;;;;;;;4991244;28;20073;-64
2023/09/28 00:35:32;;;;;;;8.90;6.63;;;;;;;;;;4982428;28;20062;-64
2023/09/28 00:38:00;;;;;;;8.82;6.55;;;;;;;;;;4990418;28;20057;-64
2023/09/28 00:40:31;;;;;;;9.77;6.65;;;;;;;;;;4984062;28;20494;-64
2023/09/28 00:42:58;;;;;;;10.93;6.95;;;;;;;;;;4990258;28;20054;-64
2023/09/28 00:45:26;;;;;;;9.82;6.53;;;;;;;;;;4989609;28;20074;-64
2023/09/28 00:47:52;;;;;;;10.45;6.82;;;;;;;;;;4988474;28;20351;-64
2023/09/28 00:50:20;;;;;;;10.23;6.85;;;;;;;;;;4991633;28;20406;-64
2023/09/28 00:52:48;;;;;;;8.90;5.75;;;;;;;;;;4985061;28;20073;-64
2023/09/28 00:55:19;;;;;;;9.07;6.43;;;;;;;;;;4991608;28;20046;-64
2023/09/28 00:57:47;;;;;;;11.02;6.75;;;;;;;;;;4990512;28;20046;-64
2023/09/28 01:00:24;;;;;;;8.10;6.10;;;;;;;;;;4989446;28;20042;-64
2023/09/28 01:02:51;;;;;;;12.68;6.07;;;;;;;;;;4986698;28;20050;-64
2023/09/28 01:05:18;;;;;;;11.32;5.53;;;;;;;;;;4980539;28;20059;-64
2023/09/28 01:07:45;;;;;;;10.52;6.22;;;;;;;;;;4984792;28;20228;-64
2023/09/28 01:10:14;;;;;;;8.32;5.78;;;;;;;;;;4987374;28;20050;-64
2023/09/28 01:12:43;;;;;;;12.48;6.22;;;;;;;;;;4983245;28;20093;-64
2023/09/28 01:15:11;;;;;;;9.00;5.65;;;;;;;;;;4990888;28;20130;-64
2023/09/28 01:17:38;;;;;;;8.48;5.57;;;;;;;;;;4988917;28;20502;-63
2023/09/28 01:20:08;;;;;;;9.38;5.70;;;;;;;;;;4979944;28;20135;-64
2023/09/28 01:22:37;;;;;;;7.93;5.22;;;;;;;;;;4985280;28;20047;-64
2023/09/28 01:25:04;;;;;;;10.23;5.40;;;;;;;;;;4972594;28;20109;-63
2023/09/28 01:27:31;;;;;;;7.72;5.38;;;;;;;;;;4975498;28;20502;-64
2023/09/28 01:29:57;;;;;;;10.73;5.35;;;;;;;;;;4968568;28;20064;-64
2023/09/28 01:32:25;;;;;;;7.03;5.03;;;;;;;;;;4953226;28;20059;-64
2023/09/28 01:34:51;;;;;;;9.00;5.55;;;;;;;;;;4970595;28;20397;-64
2023/09/28 01:37:19;;;;;;;10.20;5.53;;;;;;;;;;4969718;28;20046;-64
2023/09/28 01:39:47;;;;;;;7.93;5.43;;;;;;;;;;4972802;28;20376;-64
2023/09/28 01:42:14;;;;;;;7.22;5.22;;;;;;;;;;4966545;28;20107;-64
2023/09/28 01:44:40;;;;;;;8.73;4.80;;;;;;;;;;4972064;28;20454;-64
2023/09/28 01:47:07;;;;;;;8.70;5.25;;;;;;;;;;4955168;28;20046;-64
2023/09/28 01:49:34;;;;;;;7.35;4.90;;;;;;;;;;4971289;28;20058;-63
2023/09/28 01:52:01;;;;;;;7.75;5.05;;;;;;;;;;4974606;28;20054;-64
2023/09/28 01:54:27;;;;;;;8.45;4.47;;;;;;;;;;4978537;28;20051;-64
2023/09/28 01:56:56;;;;;;;6.97;4.55;;;;;;;;;;4972136;28;20489;-64
2023/09/28 01:59:22;;;;;;;5.88;3.92;;;;;;;;;;4972705;28;20046;-64
2023/09/28 02:01:50;;;;;;;6.28;4.43;;;;;;;;;;4978717;28;20116;-64
2023/09/28 02:04:16;;;;;;;6.32;4.05;;;;;;;;;;4971533;28;20047;-64
2023/09/28 02:06:44;;;;;;;7.25;4.55;;;;;;;;;;4973474;28;20133;-64
2023/09/28 02:09:11;;;;;;;5.45;3.97;;;;;;;;;;4966371;28;21013;-64
2023/09/28 02:11:43;;;;;;;7.13;4.00;;;;;;;;;;4976287;28;20043;-64
2023/09/28 02:14:11;;;;;;;5.72;3.78;;;;;;;;;;4978324;28;21320;-64
2023/09/28 02:16:38;;;;;;;6.00;4.20;;;;;;;;;;4958530;28;20057;-64
2023/09/28 02:19:05;;;;;;;5.80;3.78;;;;;;;;;;4975977;28;20412;-63
2023/09/28 02:21:33;;;;;;;8.32;3.70;;;;;;;;;;4980678;28;20043;-63
2023/09/28 02:23:59;;;;;;;5.57;3.60;;;;;;;;;;4986448;28;20540;-64
2023/09/28 02:26:26;;;;;;;6.20;3.47;;;;;;;;;;4989517;28;20046;-64
2023/09/28 02:28:53;;;;;;;5.93;3.92;;;;;;;;;;4990288;28;20046;-64
2023/09/28 02:31:21;;;;;;;7.85;4.07;;;;;;;;;;4993125;28;20045;-64
2023/09/28 02:33:48;;;;;;;6.82;4.28;;;;;;;;;;4988765;28;20070;-64
2023/09/28 02:36:16;;;;;;;8.10;4.40;;;;;;;;;;4990479;28;20130;-64
2023/09/28 02:38:43;;;;;;;9.75;4.18;;;;;;;;;;4988256;28;20529;-64
2023/09/28 02:41:16;;;;;;;7.45;4.10;;;;;;;;;;4992255;28;20104;-64
2023/09/28 02:43:42;;;;;;;7.93;3.90;;;;;;;;;;4992350;28;20050;-64
2023/09/28 02:46:09;;;;;;;7.68;4.10;;;;;;;;;;4989761;28;20046;-64
2023/09/28 02:48:37;;;;;;;6.97;3.92;;;;;;;;;;4991859;28;20126;-64
2023/09/28 02:51:07;;;;;;;8.48;4.07;;;;;;;;;;4993336;28;20494;-64
2023/09/28 02:53:33;;;;;;;6.22;3.80;;;;;;;;;;4975913;28;20082;-64
2023/09/28 02:56:00;;;;;;;7.00;3.75;;;;;;;;;;4988517;28;20058;-64
2023/09/28 02:58:26;;;;;;;8.98;3.92;;;;;;;;;;4988461;28;20050;-64
2023/09/28 03:00:55;;;;;;;5.93;3.83;;;;;;;;;;4979218;28;20398;-64
2023/09/28 03:03:22;;;;;;;8.02;3.92;;;;;;;;;;4986278;28;20054;-64
2023/09/28 03:05:51;;;;;;;5.93;3.90;;;;;;;;;;4999113;28;20481;-64
2023/09/28 03:08:18;;;;;;;9.75;4.00;;;;;;;;;;4976007;28;20134;-64
2023/09/28 03:10:46;;;;;;;6.18;3.53;;;;;;;;;;4991492;28;20058;-64
2023/09/28 03:13:13;;;;;;;6.45;3.90;;;;;;;;;;5000721;28;20072;-64
2023/09/28 03:15:41;;;;;;;7.65;3.72;;;;;;;;;;5001060;28;20108;-64
2023/09/28 03:18:07;;;;;;;5.78;3.38;;;;;;;;;;4992463;28;20081;-64
2023/09/28 03:20:35;;;;;;;6.57;3.65;;;;;;;;;;4995110;28;20085;-64
2023/09/28 03:23:04;;;;;;;6.45;4.13;;;;;;;;;;4982253;28;20073;-63
2023/09/28 03:25:31;;;;;;;10.80;3.97;;;;;;;;;;4993541;28;20054;-64
2023/09/28 03:27:57;;;;;;;8.57;3.90;;;;;;;;;;4992148;28;20142;-64
2023/09/28 03:30:25;;;;;;;7.40;3.90;;;;;;;;;;4992052;28;20097;-64
2023/09/28 03:32:51;;;;;;;7.43;3.25;;;;;;;;;;4993030;28;20109;-64
2023/09/28 03:35:19;;;;;;;6.85;3.40;;;;;;;;;;4996013;28;20674;-64
2023/09/28 03:37:47;;;;;;;8.10;3.55;;;;;;;;;;5005374;28;20096;-64
2023/09/28 03:40:16;;;;;;;9.95;3.78;;;;;;;;;;4997263;28;20042;-63
2023/09/28 03:42:44;;;;;;;8.82;3.90;;;;;;;;;;4991972;28;20049;-63
2023/09/28 03:45:14;;;;;;;13.18;4.13;;;;;;;;;;4989257;28;20061;-63
2023/09/28 03:47:41;;;;;;;9.52;3.40;;;;;;;;;;4981617;28;20463;-64
2023/09/28 03:50:10;;;;;;;8.35;3.72;;;;;;;;;;4991155;28;20043;-64
2023/09/28 03:52:38;;;;;;;10.50;3.92;;;;;;;;;;4990469;28;20465;-64
2023/09/28 03:55:06;;;;;;;6.97;3.92;;;;;;;;;;4988163;28;20054;-63
2023/09/28 03:57:34;;;;;;;8.30;3.55;;;;;;;;;;4991347;28;20596;-64
2023/09/28 04:00:02;;;;;;;8.70;4.00;;;;;;;;;;4993206;28;20056;-64
2023/09/28 04:02:29;;;;;;;7.25;3.65;;;;;;;;;;4990741;28;20141;-64
2023/09/28 04:04:57;;;;;;;6.85;3.53;;;;;;;;;;4986428;28;20054;-64
2023/09/28 04:07:24;;;;;;;11.13;4.10;;;;;;;;;;4991308;28;20046;-63
2023/09/28 04:12:23;;;;;;;8.82;3.53;;;;;;;;;;4987447;28;20062;-63
2023/09/28 04:14:51;;;;;;;6.05;3.13;;;;;;;;;;4991635;28;20051;-63
2023/09/28 04:17:19;;;;;;;11.90;3.72;;;;;;;;;;4987963;28;20307;-64
2023/09/28 04:19:46;;;;;;;11.10;3.13;;;;;;;;;;4996896;28;20058;-63
2023/09/28 04:22:13;;;;;;;12.43;2.53;;;;;;;;;;4994468;28;20046;-64
2023/09/28 04:24:40;;;;;;;7.82;2.45;;;;;;;;;;4987974;28;20117;-63
2023/09/28 04:27:08;;;;;;;9.40;2.50;;;;;;;;;;4992666;28;20050;-63
2023/09/28 04:29:35;;;;;;;6.28;2.00;;;;;;;;;;4996606;28;20042;-63
2023/09/28 04:32:04;;;;;;;9.00;1.90;;;;;;;;;;4986712;28;20068;-65
2023/09/28 04:34:31;;;;;;;9.82;2.00;;;;;;;;;;4993032;28;20524;-65
2023/09/28 04:36:58;;;;;;;9.35;1.90;;;;;;;;;;4985013;28;20077;-65
2023/09/28 04:39:27;;;;;;;11.90;2.08;;;;;;;;;;4996133;28;20142;-65
2023/09/28 04:41:54;;;;;;;12.80;1.83;;;;;;;;;;4989623;28;20167;-65
2023/09/28 04:44:23;;;;;;;12.18;1.70;;;;;;;;;;4979745;28;20108;-65
2023/09/28 04:46:50;;;;;;;11.75;1.77;;;;;;;;;;4992993;28;20054;-65
2023/09/28 04:49:19;;;;;;;14.32;2.15;;;;;;;;;;4991702;28;20224;-65
2023/09/28 04:51:47;;;;;;;9.52;1.77;;;;;;;;;;4996007;28;20068;-65
2023/09/28 04:54:14;;;;;;;11.77;1.85;;;;;;;;;;4995208;28;20466;-65
2023/09/28 04:56:43;;;;;;;12.50;1.73;;;;;;;;;;4989656;28;20050;-65
2023/09/28 04:59:10;;;;;;;14.70;1.70;;;;;;;;;;4991928;28;20047;-65
2023/09/28 05:01:37;;;;;;;16.27;1.83;;;;;;;;;;4990501;28;20053;-65
2023/09/28 05:04:04;;;;;;;13.40;1.90;;;;;;;;;;4994239;28;20126;-65
2023/09/28 05:06:33;;;;;;;11.35;1.88;;;;;;;;;;4992490;28;20526;-65
2023/09/28 05:09:00;;;;;;;15.55;2.15;;;;;;;;;;4998593;28;20057;-65
2023/09/28 05:11:27;;;;;;;15.10;1.70;;;;;;;;;;4993832;28;20095;-65
2023/09/28 05:13:55;;;;;;;15.02;2.47;;;;;;;;;;4989298;28;20093;-65
2023/09/28 05:16:22;;;;;;;19.13;2.30;;;;;;;;;;4994179;28;20104;-65
2023/09/28 05:18:49;;;;;;;14.98;2.20;;;;;;;;;;4987800;28;20054;-65
2023/09/28 05:21:17;;;;;;;15.90;2.63;;;;;;;;;;4994010;28;20046;-65
2023/09/28 05:23:46;;;;;;;15.10;2.63;;;;;;;;;;4989142;28;20054;-65
2023/09/28 05:26:13;;;;;;;18.30;2.67;;;;;;;;;;4990258;28;20571;-65
2023/09/28 05:28:40;;;;;;;21.42;3.03;;;;;;;;;;4977129;28;20050;-65
2023/09/28 05:31:07;;;;;;;19.20;2.75;;;;;;;;;;5000414;28;20042;-65
2023/09/28 05:33:35;;;;;;;22.02;2.20;;;;;;;;;;4990963;28;20410;-65
2023/09/28 05:36:02;;;;;;;21.00;2.33;;;;;;;;;;4998168;28;20061;-65
2023/09/28 05:38:29;;;;;;;17.95;2.45;;;;;;;;;;4999301;28;20046;-64
2023/09/28 05:40:58;;;;;;;13.68;2.10;;;;;;;;;;4989246;28;20054;-65
2023/09/28 05:43:25;;;;;;;10.65;1.90;;;;;;;;;;4995966;28;20409;-65
2023/09/28 05:45:52;;;;;;;16.33;2.00;;;;;;;;;;4980516;28;20558;-65
2023/09/28 05:48:20;;;;;;;19.45;2.72;;;;;;;;;;4993924;28;20104;-65
2023/09/28 05:50:47;;;;;;;15.18;2.42;;;;;;;;;;4995880;28;20053;-65
2023/09/28 05:53:14;;;;;;;18.75;2.78;;;;;;;;;;4995958;28;20494;-65
2023/09/28 05:55:41;;;;;;;22.17;2.60;;;;;;;;;;4987122;28;20140;-65
2023/09/28 05:58:10;;;;;;;22.35;2.50;;;;;;;;;;4974920;28;20049;-65
2023/09/28 06:00:37;;;;;;;13.15;2.58;;;;;;;;;;4985820;28;20042;-65
2023/09/28 06:03:05;;;;;;;16.35;2.15;;;;;;;;;;4992048;28;20414;-65
2023/09/28 06:05:32;;;;;;;16.95;2.20;;;;;;;;;;4983847;28;20124;-65
2023/09/28 06:08:00;;;;;;;15.90;1.95;;;;;;;;;;4989808;28;20120;-65
2023/09/28 06:10:27;;;;;;;17.05;2.38;;;;;;;;;;4998534;28;20054;-65
2023/09/28 06:12:55;;;;;;;16.95;2.20;;;;;;;;;;4987678;28;20137;-65
2023/09/28 06:15:23;;;;;;;23.20;3.35;;;;;;;;;;4990417;28;20042;-65
2023/09/28 06:17:51;;;;;;;19.20;2.90;;;;;;;;;;4996953;28;20049;-65
2023/09/28 06:20:18;;;;;;;17.60;2.20;;;;;;;;;;5005261;28;20073;-65
2023/09/28 06:22:45;;;;;;;23.60;2.72;;;;;;;;;;5000081;28;20051;-65
2023/09/28 06:25:12;;;;;;;16.73;2.30;;;;;;;;;;4998654;28;20046;-65
2023/09/28 06:27:40;;;;;;;20.40;3.08;;;;;;;;;;4993648;28;20050;-65
2023/09/28 06:30:08;;;;;;;22.52;2.55;;;;;;;;;;4987199;28;20512;-65
2023/09/28 06:32:36;;;;;;;14.98;2.20;;;;;;;;;;4995256;28;20053;-65
2023/09/28 06:35:03;;;;;;;16.23;2.35;;;;;;;;;;4993210;28;20046;-65
2023/09/28 06:37:31;;;;;;;11.32;2.35;;;;;;;;;;5001568;28;20050;-65
2023/09/28 06:39:58;;;;;;;24.35;2.55;;;;;;;;;;5004719;28;20057;-65
2023/09/28 06:42:27;;;;;;;19.98;2.47;;;;;;;;;;4997319;28;20073;-65
2023/09/28 06:44:54;;;;;;;18.85;2.60;;;;;;;;;;4998024;28;20160;-65
2023/09/28 06:47:22;;;;;;;16.67;2.78;;;;;;;;;;5002843;28;20045;-65
2023/09/28 06:49:50;;;;;;;14.23;2.10;;;;;;;;;;5002120;28;20046;-65
2023/09/28 06:52:17;;;;;;;23.55;2.53;;;;;;;;;;4995038;28;20059;-65
2023/09/28 06:54:45;;;;;;;19.85;2.33;;;;;;;;;;5000190;28;20065;-65
2023/09/28 06:57:12;;;;;;;15.38;2.30;;;;;;;;;;4995970;28;20050;-65
2023/09/28 06:59:39;;;;;;;18.25;2.85;;;;;;;;;;4989956;28;20061;-65
2023/09/28 07:02:06;;;;;;;18.08;2.67;;;;;;;;;;4992522;28;20504;-65
2023/09/28 07:04:33;;;;;;;21.10;3.00;;;;;;;;;;4992819;28;20047;-65
2023/09/28 07:07:02;;;;;;;19.38;2.58;;;;;;;;;;4994450;28;20413;-65
2023/09/28 07:09:31;;;;;;;21.95;2.40;;;;;;;;;;4975566;28;20047;-65
2023/09/28 07:11:58;;;;;;;13.55;2.40;;;;;;;;;;4989794;28;20679;-65
2023/09/28 07:14:25;;;;;;;20.73;2.47;;;;;;;;;;5001341;28;20066;-65
2023/09/28 07:16:53;;;;;;;21.83;2.63;;;;;;;;;;5008514;28;20052;-65
2023/09/28 07:19:20;;;;;;;19.85;2.55;;;;;;;;;;5002219;28;20046;-65
2023/09/28 07:21:48;;;;;;;18.42;3.10;;;;;;;;;;4980250;28;20046;-65
2023/09/28 07:24:16;;;;;;;22.02;3.35;;;;;;;;;;4995980;28;20056;-65
2023/09/28 07:26:44;;;;;;;11.35;2.00;;;;;;;;;;4974869;28;20061;-64
2023/09/28 07:29:11;;;;;;;22.23;2.97;;;;;;;;;;4997377;28;20089;-65
2023/09/28 07:31:38;;;;;;;10.80;2.47;;;;;;;;;;4991616;28;20521;-65
2023/09/28 07:34:06;;;;;;;15.52;2.42;;;;;;;;;;4994122;28;20046;-65
2023/09/28 07:36:33;;;;;;;13.52;2.00;;;;;;;;;;4996640;28;20414;-65
2023/09/28 07:39:01;;;;;;;22.08;2.60;;;;;;;;;;4994389;28;20046;-65
2023/09/28 07:41:29;;;;;;;18.08;2.83;;;;;;;;;;4992582;28;20113;-65
2023/09/28 07:43:57;;;;;;;18.42;2.97;;;;;;;;;;4995909;28;20054;-65
2023/09/28 07:46:24;;;;;;;13.18;2.65;;;;;;;;;;4991984;28;20068;-65
2023/09/28 07:48:51;;;;;;;19.48;3.60;;;;;;;;;;4989665;28;20046;-65
2023/09/28 07:51:19;;;;;;;22.50;3.05;;;;;;;;;;4998275;28;20481;-65
2023/09/28 07:53:46;;;;;;;18.80;2.88;;;;;;;;;;5000868;28;20486;-65
2023/09/28 07:56:13;;;;;;;15.07;2.20;;;;;;;;;;4992634;28;20058;-65
2023/09/28 07:58:42;;;;;;;23.58;2.70;;;;;;;;;;4991666;28;20754;-65
2023/09/28 08:01:09;;;;;;;15.85;3.00;;;;;;;;;;4992068;28;20064;-65
2023/09/28 08:03:37;;;;;;;15.45;2.20;;;;;;;;;;4996892;28;20049;-65
2023/09/28 08:06:04;;;;;;;17.35;2.50;;;;;;;;;;4976344;28;20054;-65
2023/09/28 08:08:32;;;;;;;16.00;2.90;;;;;;;;;;4990635;28;20046;-65
2023/09/28 08:11:00;;;;;;;16.90;2.60;;;;;;;;;;4999095;28;20160;-65
2023/09/28 08:13:27;;;;;;;19.08;2.63;;;;;;;;;;4987936;28;20069;-65
2023/09/28 08:15:56;;;;;;;20.90;3.08;;;;;;;;;;4997732;28;20441;-65
2023/09/28 08:18:23;;;;;;;18.33;2.85;;;;;;;;;;4999544;28;20117;-65
2023/09/28 08:20:52;;;;;;;17.70;2.17;;;;;;;;;;4997398;28;20050;-65
2023/09/28 08:23:19;;;;;;;22.42;2.50;;;;;;;;;;4993484;28;20057;-65
2023/09/28 08:25:46;;;;;;;18.00;2.17;;;;;;;;;;4991744;28;20049;-65
2023/09/28 08:28:14;;;;;;;11.73;2.47;;;;;;;;;;4992132;28;20046;-65
2023/09/28 08:30:42;;;;;;;18.88;2.38;;;;;;;;;;4992212;28;20049;-65
2023/09/28 08:33:10;;;;;;;17.55;2.50;;;;;;;;;;4986553;28;20050;-65
2023/09/28 08:35:38;;;;;;;18.35;2.30;;;;;;;;;;4994393;28;20133;-64
2023/09/28 08:38:06;;;;;;;14.20;2.47;;;;;;;;;;5002990;28;20401;-64
2023/09/28 08:40:33;;;;;;;15.57;2.58;;;;;;;;;;5002557;28;20397;-65
2023/09/28 08:43:05;;;;;;;15.55;2.33;;;;;;;;;;4990055;28;20047;-65
2023/09/28 08:45:33;;;;;;;21.23;3.45;;;;;;;;;;4992641;28;20107;-65
2023/09/28 08:48:02;;;;;;;18.17;2.58;;;;;;;;;;4996167;28;20054;-65
2023/09/28 08:50:34;;;;;;;15.85;2.70;;;;;;;;;;4988921;28;20052;-65
2023/09/28 08:53:01;;;;;;;17.33;2.50;;;;;;;;;;4998339;28;20054;-65
2023/09/28 08:55:29;;;;;;;18.88;2.67;;;;;;;;;;4994666;28;20065;-65
2023/09/28 08:57:57;;;;;;;15.00;2.10;;;;;;;;;;4993666;28;20062;-65
2023/09/28 09:00:24;;;;;;;14.45;2.17;;;;;;;;;;4994370;28;20054;-65
2023/09/28 09:02:53;;;;;;;17.30;2.42;;;;;;;;;;4991196;28;20050;-66
2023/09/28 09:05:20;;;;;;;13.65;2.05;;;;;;;;;;4990177;28;20141;-65
2023/09/28 09:07:49;;;;;;;13.02;2.20;;;;;;;;;;4972723;28;20493;-64
2023/09/28 09:10:19;;;;;;;18.05;2.20;;;;;;;;;;4989922;28;20046;-65
2023/09/28 09:12:46;;;;;;;17.25;2.33;;;;;;;;;;4971430;28;20054;-65
2023/09/28 09:15:14;;;;;;;18.10;2.95;;;;;;;;;;4991656;28;20397;-65
2023/09/28 09:17:41;;;;;;;17.38;2.50;;;;;;;;;;4997163;28;20476;-65
2023/09/28 09:20:09;;;;;;;18.95;2.35;;;;;;;;;;4986482;28;20133;-65
2023/09/28 09:22:36;;;;;;;12.23;2.63;;;;;;;;;;4972167;28;20058;-65
2023/09/28 09:25:05;;;;;;;17.40;2.70;;;;;;;;;;5001455;28;20065;-65
2023/09/28 09:27:33;;;;;;;29.05;3.47;;;;;;;;;;4968698;28;20058;-65
2023/09/28 09:30:05;;;;;;;17.55;3.00;;;;;;;;;;4985204;28;20054;-65
2023/09/28 09:32:32;;;;;;;15.80;2.08;;;;;;;;;;4962737;28;20046;-65
2023/09/28 09:35:00;;;;;;;23.92;2.72;;;;;;;;;;5002536;28;20782;-65
2023/09/28 09:37:27;;;;;;;14.50;2.78;;;;;;;;;;4981386;28;20419;-65
2023/09/28 09:39:55;;;;;;;20.42;2.58;;;;;;;;;;4982153;28;20061;-65
2023/09/28 09:42:29;;;;;;;16.98;2.50;;;;;;;;;;4996924;28;20038;-65
2023/09/28 09:44:57;;;;;;;14.82;2.17;;;;;;;;;;4982604;28;20051;-65
2023/09/28 09:47:26;;;;;;;12.57;2.28;;;;;;;;;;4977668;28;20134;-65
2023/09/28 09:49:53;;;;;;;19.50;2.28;;;;;;;;;;4998594;28;20725;-65
2023/09/28 09:52:21;;;;;;;20.48;2.60;;;;;;;;;;4996629;28;20050;-65
2023/09/28 09:54:48;;;;;;;15.27;2.10;;;;;;;;;;4999019;28;20050;-65
2023/09/28 09:57:17;;;;;;;18.33;2.40;;;;;;;;;;4991597;28;20478;-65
2023/09/28 09:59:50;;;;;;;14.95;2.33;;;;;;;;;;5001371;28;20697;-65
2023/09/28 10:02:22;;;;;;;23.92;2.60;;;;;;;;;;5001513;28;20049;-65
2023/09/28 10:04:51;;;;;;;23.07;2.43;;;;;;;;;;4996347;28;20046;-65
2023/09/28 10:07:18;;;;;;;14.73;2.33;;;;;;;;;;5000640;28;20045;-65
2023/09/28 10:09:46;;;;;;;9.93;1.90;;;;;;;;;;5000718;28;20050;-65
2023/09/28 10:12:14;;;;;;;10.07;2.22;;;;;;;;;;4982782;28;20525;-65
2023/09/28 10:14:41;;;;;;;18.48;2.17;;;;;;;;;;5002032;28;20073;-65
2023/09/28 10:17:11;;;;;;;16.73;2.70;;;;;;;;;;4999100;28;20467;-65
2023/09/28 10:19:39;;;;;;;11.15;2.67;;;;;;;;;;4996478;28;20046;-65
2023/09/28 10:22:06;;;;;;;15.25;2.85;;;;;;;;;;5006135;28;20068;-65
2023/09/28 10:24:34;;;;;;;14.40;1.85;;;;;;;;;;5000458;28;20046;-65
2023/09/28 10:27:08;;;;;;;12.45;2.22;;;;;;;;;;4991931;28;20060;-65
2023/09/28 10:29:35;;;;;;;13.20;1.88;;;;;;;;;;4992354;28;20051;-65
2023/09/28 10:32:03;;;;;;;9.23;1.73;;;;;;;;;;4984896;28;20482;-65
2023/09/28 10:34:32;;;;;;;12.63;2.10;;;;;;;;;;4981448;28;20055;-65
2023/09/28 10:37:18;;;;;;;13.18;2.15;;;;;;;;;;4997840;28;20053;-66
2023/09/28 10:39:49;;;;;;;9.57;1.90;;;;;;;;;;4996565;28;20049;-65
2023/09/28 10:42:17;;;;;;;10.65;2.53;;;;;;;;;;4992453;28;20043;-65
2023/09/28 10:44:48;;;;;;;11.98;2.08;;;;;;;;;;4991802;28;20054;-65
2023/09/28 10:47:16;;;;;;;14.48;1.60;;;;;;;;;;4998861;28;20058;-65
2023/09/28 10:49:45;;;;;;;13.60;2.42;;;;;;;;;;5002785;28;20481;-65
2023/09/28 10:52:12;;;;;;;16.13;2.25;;;;;;;;;;4996798;28;20081;-65
2023/09/28 10:54:41;;;;;;;10.88;2.03;;;;;;;;;;5001887;28;20050;-65
2023/09/28 10:57:09;;;;;;;13.77;1.67;;;;;;;;;;4974532;28;20054;-65
2023/09/28 10:59:40;;;;;;;11.38;1.98;;;;;;;;;;4994588;28;20054;-65
2023/09/28 11:02:08;;;;;;;13.57;1.98;;;;;;;;;;4993557;28;20050;-65
2023/09/28 11:04:38;;;;;;;9.68;1.70;;;;;;;;;;4991668;28;20053;-64
2023/09/28 11:07:07;;;;;;;10.02;1.50;;;;;;;;;;5002282;28;20042;-65
2023/09/28 11:09:34;;;;;;;12.65;1.92;;;;;;;;;;4977786;28;20046;-65
2023/09/28 11:12:08;;;;;;;12.73;2.08;;;;;;;;;;4992526;28;20161;-65
2023/09/28 11:14:36;;;;;;;11.10;1.90;;;;;;;;;;4996425;28;20076;-65
2023/09/28 11:17:03;;;;;;;12.43;1.73;;;;;;;;;;4985033;28;20057;-65
2023/09/28 11:19:31;;;;;;;8.95;1.63;;;;;;;;;;4976257;28;20383;-65
2023/09/28 11:21:58;;;;;;;10.30;1.80;;;;;;;;;;5002593;28;20050;-66
2023/09/28 11:24:27;;;;;;;10.52;1.80;;;;;;;;;;4996708;28;20490;-65
2023/09/28 11:26:56;;;;;;;7.65;1.30;;;;;;;;;;4986156;28;20072;-65
2023/09/28 11:29:23;;;;;;;7.28;1.95;;;;;;;;;;4996720;28;20129;-66
2023/09/28 11:31:53;;;;;;;7.97;1.88;;;;;;;;;;4985653;28;20047;-65
2023/09/28 11:34:28;;;;;;;8.65;1.70;;;;;;;;;;4999606;28;20050;-65
2023/09/28 11:36:56;;;;;;;8.55;1.70;;;;;;;;;;4991134;28;20113;-65
2023/09/28 11:39:25;;;;;;;15.27;3.13;;;;;;;;;;4986297;28;20058;-65
2023/09/28 11:42:00;;;;;;;10.77;1.73;;;;;;;;;;4993495;28;20469;-65
2023/09/28 11:44:28;;;;;;;10.20;2.35;;;;;;;;;;4987881;28;20653;-65
2023/09/28 11:46:55;;;;;;;11.25;1.52;;;;;;;;;;4975552;28;20504;-65
2023/09/28 11:49:23;;;;;;;10.52;2.08;;;;;;;;;;4975079;28;20581;-65
2023/09/28 11:51:52;;;;;;;13.40;1.75;;;;;;;;;;5002479;28;20121;-65
2023/09/28 11:54:21;;;;;;;13.07;2.28;;;;;;;;;;4993423;28;20050;-65
2023/09/28 11:56:49;;;;;;;14.60;1.90;;;;;;;;;;4977163;28;20066;-65
2023/09/28 11:59:17;;;;;;;10.38;2.05;;;;;;;;;;4998722;28;20050;-65
2023/09/28 12:01:45;;;;;;;10.57;1.50;;;;;;;;;;4994531;28;20046;-65
2023/09/28 12:04:12;;;;;;;8.98;1.90;;;;;;;;;;4975043;28;20494;-65
2023/09/28 12:06:40;;;;;;;10.57;2.28;;;;;;;;;;4993180;28;20077;-65
2023/09/28 12:09:08;;;;;;;13.65;1.95;;;;;;;;;;4993595;28;20050;-65
2023/09/28 12:11:37;;;;;;;11.52;2.03;;;;;;;;;;4998778;28;20409;-65
2023/09/28 12:14:04;;;;;;;12.88;2.25;;;;;;;;;;4996147;28;20050;-65
2023/09/28 12:16:33;;;;;;;13.82;1.63;;;;;;;;;;5001488;28;20045;-65
2023/09/28 12:19:00;;;;;;;14.20;1.95;;;;;;;;;;4993774;28;21289;-65
2023/09/28 12:21:28;;;;;;;16.83;2.58;;;;;;;;;;4984918;28;20093;-66
2023/09/28 12:23:55;;;;;;;15.20;2.67;;;;;;;;;;4994624;28;20050;-65
2023/09/28 12:26:23;;;;;;;13.73;2.72;;;;;;;;;;5000349;28;20113;-65
2023/09/28 12:28:50;;;;;;;14.18;2.15;;;;;;;;;;4992353;28;20046;-65
2023/09/28 12:31:17;;;;;;;11.05;1.70;;;;;;;;;;4993302;28;20046;-65
2023/09/28 12:33:46;;;;;;;12.27;2.00;;;;;;;;;;4991258;28;20050;-66
2023/09/28 12:36:13;;;;;;;14.88;2.20;;;;;;;;;;4975359;28;20449;-65
2023/09/28 12:38:41;;;;;;;11.70;2.10;;;;;;;;;;4992020;28;20122;-65
2023/09/28 12:41:09;;;;;;;16.52;2.42;;;;;;;;;;4993055;28;20555;-65
2023/09/28 12:43:36;;;;;;;12.85;2.30;;;;;;;;;;4991893;28;20046;-65
2023/09/28 12:46:03;;;;;;;12.95;2.10;;;;;;;;;;4992862;28;20149;-65
2023/09/28 12:48:31;;;;;;;11.02;1.90;;;;;;;;;;4994134;28;20050;-65
2023/09/28 12:50:59;;;;;;;11.95;2.58;;;;;;;;;;4992737;28;20069;-65
2023/09/28 12:53:27;;;;;;;14.38;2.17;;;;;;;;;;4992295;28;20042;-65
2023/09/28 12:55:54;;;;;;;14.80;2.33;;;;;;;;;;4991355;28;20492;-65
2023/09/28 12:58:22;;;;;;;17.75;2.60;;;;;;;;;;4977086;28;20481;-65
2023/09/28 13:00:49;;;;;;;12.40;2.10;;;;;;;;;;4995496;28;20515;-65
2023/09/28 13:03:18;;;;;;;12.10;1.85;;;;;;;;;;4982717;28;20066;-65
2023/09/28 13:05:45;;;;;;;10.63;1.83;;;;;;;;;;4991987;28;20050;-65
2023/09/28 13:08:15;;;;;;;15.43;2.40;;;;;;;;;;4992522;28;20054;-65
2023/09/28 13:10:42;;;;;;;14.85;2.65;;;;;;;;;;4999335;28;20127;-65
2023/09/28 13:13:10;;;;;;;15.85;1.98;;;;;;;;;;4996999;28;20043;-65
2023/09/28 13:15:38;;;;;;;13.30;2.35;;;;;;;;;;4999167;28;20068;-65
2023/09/28 13:18:08;;;;;;;10.20;1.90;;;;;;;;;;4992049;28;20088;-65
2023/09/28 13:20:36;;;;;;;13.73;2.30;;;;;;;;;;5000645;28;20512;-64
2023/09/28 13:23:05;;;;;;;10.30;2.22;;;;;;;;;;4991995;28;20513;-65
2023/09/28 13:25:33;;;;;;;13.45;2.10;;;;;;;;;;4999502;28;20553;-65
2023/09/28 13:28:01;;;;;;;8.75;1.95;;;;;;;;;;4994288;28;20046;-65
2023/09/28 13:30:29;;;;;;;17.35;2.53;;;;;;;;;;4976037;28;20058;-65
2023/09/28 13:32:58;;;;;;;17.73;2.55;;;;;;;;;;4988326;28;20046;-65
2023/09/28 13:35:25;;;;;;;13.25;1.92;;;;;;;;;;4992847;28;20045;-65
2023/09/28 13:37:52;;;;;;;11.85;2.20;;;;;;;;;;4987030;28;20497;-65
2023/09/28 13:40:23;;;;;;;9.43;1.88;;;;;;;;;;4992910;28;20046;-65
2023/09/28 13:42:53;;;;;;;14.07;2.85;;;;;;;;;;4986751;28;20081;-65
2023/09/28 13:45:21;;;;;;;11.10;1.75;;;;;;;;;;4989811;28;20137;-65
2023/09/28 13:47:48;;;;;;;11.95;2.05;;;;;;;;;;4994400;28;20046;-65
2023/09/28 13:50:16;;;;;;;14.27;1.98;;;;;;;;;;4992460;28;20046;-65
2023/09/28 13:52:45;;;;;;;12.50;2.05;;;;;;;;;;4990708;28;20117;-65
2023/09/28 13:55:15;;;;;;;11.57;1.83;;;;;;;;;;4983190;28;20050;-65
2023/09/28 13:57:43;;;;;;;8.45;1.67;;;;;;;;;;4990285;28;20046;-65
2023/09/28 14:00:21;;;;;;;13.10;1.98;;;;;;;;;;4989570;28;20051;-65
2023/09/28 14:02:49;;;;;;;9.93;1.75;;;;;;;;;;4992194;28;20054;-65
2023/09/28 14:05:16;;;;;;;9.43;1.85;;;;;;;;;;4994537;28;20042;-65
2023/09/28 14:07:44;;;;;;;11.50;1.92;;;;;;;;;;4989964;28;20053;-65
2023/09/28 14:10:12;;;;;;;7.93;1.70;;;;;;;;;;4989844;28;20542;-65
2023/09/28 14:12:39;;;;;;;15.50;1.80;;;;;;;;;;4989799;28;20046;-65
2023/09/28 14:15:09;;;;;;;16.42;2.10;;;;;;;;;;4997460;28;20516;-65
2023/09/28 14:17:38;;;;;;;14.90;2.33;;;;;;;;;;4996354;28;20050;-65
2023/09/28 14:20:06;;;;;;;15.57;2.28;;;;;;;;;;4992054;28;20046;-65
2023/09/28 14:22:34;;;;;;;12.05;1.88;;;;;;;;;;4995441;28;20073;-65
2023/09/28 14:25:02;;;;;;;11.23;2.22;;;;;;;;;;5000011;28;20108;-65
2023/09/28 14:27:30;;;;;;;10.95;2.08;;;;;;;;;;4993835;28;20047;-65
2023/09/28 14:29:58;;;;;;;14.68;1.70;;;;;;;;;;4992915;28;20145;-65
2023/09/28 14:32:25;;;;;;;12.65;1.85;;;;;;;;;;4990434;28;20038;-65
2023/09/28 14:34:54;;;;;;;9.10;1.95;;;;;;;;;;5003184;28;20420;-65
2023/09/28 14:37:21;;;;;;;10.07;1.92;;;;;;;;;;4996487;28;20042;-65
2023/09/28 14:39:49;;;;;;;9.40;1.58;;;;;;;;;;4997465;28;20185;-65